createdAt,value
2023-03-11T00:01:07.483Z,65
2023-03-11T00:02:23.666Z,65
2023-03-11T00:03:39.774Z,65
2023-03-11T00:04:56.046Z,64.9
2023-03-11T00:06:12.247Z,64.8
2023-03-11T00:07:28.342Z,64.9
2023-03-11T00:08:44.537Z,64.9
2023-03-11T00:10:00.721Z,64.9
2023-03-11T00:11:16.985Z,64.8
2023-03-11T00:12:33.183Z,64.8
2023-03-11T00:13:49.380Z,64.9
2023-03-11T00:15:05.566Z,64.9
2023-03-11T00:16:20.682Z,64.9
2023-03-11T00:17:36.875Z,64.9
2023-03-11T00:18:53.151Z,64.9
2023-03-11T00:20:09.250Z,64.9
2023-03-11T00:21:25.443Z,64.9
2023-03-11T00:22:41.716Z,64.7
2023-03-11T00:23:57.901Z,64.9
2023-03-11T00:25:13.998Z,64.8
2023-03-11T00:26:30.285Z,64.9
2023-03-11T00:27:46.380Z,64.8
2023-03-11T00:29:02.662Z,64.9
2023-03-11T00:30:18.842Z,64.9
2023-03-11T00:31:35.046Z,64.9
2023-03-11T00:32:50.253Z,64.9
2023-03-11T00:34:06.438Z,64.9
2023-03-11T00:35:22.538Z,64.9
2023-03-11T00:36:38.711Z,64.9
2023-03-11T00:37:54.995Z,64.9
2023-03-11T00:39:11.183Z,64.8
2023-03-11T00:40:27.377Z,64.8
2023-03-11T00:41:43.478Z,64.9
2023-03-11T00:42:59.670Z,64.9
2023-03-11T00:44:15.841Z,64.8
2023-03-11T00:45:32.140Z,64.7
2023-03-11T00:46:48.230Z,65
2023-03-11T00:48:04.429Z,64.8
2023-03-11T00:49:19.725Z,64.8
2023-03-11T00:50:35.912Z,65
2023-03-11T00:51:52.096Z,65
2023-03-11T00:53:08.285Z,64.8
2023-03-11T00:54:24.384Z,64.9
2023-03-11T00:55:40.564Z,65
2023-03-11T00:56:56.849Z,65.1
2023-03-11T00:58:12.956Z,65.1
2023-03-11T00:59:29.225Z,65.1
2023-03-11T01:00:45.415Z,65
2023-03-11T01:02:01.614Z,65
2023-03-11T01:03:17.694Z,65
2023-03-11T01:04:33.898Z,65
2023-03-11T01:05:49.192Z,65
2023-03-11T01:07:05.289Z,64.9
2023-03-11T01:08:21.465Z,65
2023-03-11T01:09:37.665Z,65.1
2023-03-11T01:10:53.863Z,65
2023-03-11T01:12:10.046Z,65
2023-03-11T01:13:26.240Z,65
2023-03-11T01:14:42.512Z,65.1
2023-03-11T01:15:58.716Z,65
2023-03-11T01:17:14.899Z,65.1
2023-03-11T01:18:31.077Z,65.1
2023-03-11T01:19:47.169Z,65.1
2023-03-11T01:21:03.467Z,65.1
2023-03-11T01:22:18.574Z,65.2
2023-03-11T01:23:34.750Z,65
2023-03-11T01:24:50.950Z,65.1
2023-03-11T01:26:07.125Z,65
2023-03-11T01:27:23.434Z,65
2023-03-11T01:28:39.611Z,65
2023-03-11T01:29:55.811Z,65.1
2023-03-11T01:31:11.991Z,65
2023-03-11T01:32:28.088Z,65.2
2023-03-11T01:33:44.267Z,65.1
2023-03-11T01:35:00.460Z,65
2023-03-11T01:36:16.743Z,65.2
2023-03-11T01:37:32.838Z,65
2023-03-11T01:38:48.153Z,65.1
2023-03-11T01:40:04.343Z,65.1
2023-03-11T01:41:20.527Z,65
2023-03-11T01:42:36.719Z,65.2
2023-03-11T01:43:52.798Z,65.1
2023-03-11T01:45:08.995Z,65.1
2023-03-11T01:46:25.283Z,65
2023-03-11T01:47:41.356Z,65.2
2023-03-11T01:48:57.548Z,65.1
2023-03-11T01:50:13.736Z,65.2
2023-03-11T01:51:29.929Z,65
2023-03-11T01:52:46.228Z,65.2
2023-03-11T01:54:02.309Z,65.3
2023-03-11T01:55:17.626Z,65.2
2023-03-11T01:56:33.813Z,65.2
2023-03-11T01:57:49.895Z,65.2
2023-03-11T01:59:06.087Z,65.2
2023-03-11T02:00:22.260Z,65.2
2023-03-11T02:01:38.572Z,65.2
2023-03-11T02:02:54.654Z,65.2
2023-03-11T02:04:10.846Z,65
2023-03-11T02:05:27.032Z,65
2023-03-11T02:06:43.319Z,64.8
2023-03-11T02:07:59.407Z,65
2023-03-11T02:09:15.710Z,65.1
2023-03-11T02:10:31.778Z,65
2023-03-11T02:11:46.994Z,64.9
2023-03-11T02:13:03.181Z,65
2023-03-11T02:14:19.370Z,65.1
2023-03-11T02:15:35.544Z,65.3
2023-03-11T02:16:51.849Z,65.2
2023-03-11T02:18:07.937Z,65.3
2023-03-11T02:19:24.118Z,65.3
2023-03-11T02:20:40.315Z,65
2023-03-11T02:21:56.501Z,65.2
2023-03-11T02:23:12.688Z,65.4
2023-03-11T02:24:28.867Z,65.3
2023-03-11T02:25:45.062Z,65
2023-03-11T02:27:01.360Z,65.1
2023-03-11T02:28:16.466Z,65.2
2023-03-11T02:29:32.645Z,64.9
2023-03-11T02:30:48.949Z,65
2023-03-11T02:32:05.143Z,65.1
2023-03-11T02:33:21.333Z,64.9
2023-03-11T02:34:37.407Z,64.9
2023-03-11T02:35:53.708Z,65.3
2023-03-11T02:37:09.896Z,65.3
2023-03-11T02:38:25.962Z,65.2
2023-03-11T02:39:42.274Z,65.2
2023-03-11T02:40:58.358Z,65.1
2023-03-11T02:42:14.539Z,64.8
2023-03-11T02:43:30.720Z,64.9
2023-03-11T02:44:46.058Z,65.3
2023-03-11T02:46:02.128Z,65
2023-03-11T02:47:18.436Z,65.2
2023-03-11T02:48:34.491Z,64.9
2023-03-11T02:49:50.686Z,65
2023-03-11T02:51:07.003Z,65
2023-03-11T02:52:23.061Z,65.2
2023-03-11T02:53:39.259Z,64.9
2023-03-11T02:54:55.455Z,65.3
2023-03-11T02:56:11.756Z,65.3
2023-03-11T02:57:27.826Z,65
2023-03-11T02:58:44.128Z,65.2
2023-03-11T03:00:00.328Z,65.1
2023-03-11T03:01:15.520Z,65.3
2023-03-11T03:02:31.716Z,65.3
2023-03-11T03:03:47.780Z,65
2023-03-11T03:05:03.960Z,65.1
2023-03-11T03:06:20.147Z,65.2
2023-03-11T03:07:36.465Z,65.1
2023-03-11T03:08:52.526Z,64.9
2023-03-11T03:10:08.842Z,65
2023-03-11T03:11:25.030Z,65
2023-03-11T03:12:41.081Z,65.2
2023-03-11T03:13:57.276Z,65.1
2023-03-11T03:15:13.596Z,65
2023-03-11T03:16:29.774Z,65
2023-03-11T03:17:44.985Z,64.8
2023-03-11T03:19:01.048Z,65
2023-03-11T03:20:17.232Z,65.1
2023-03-11T03:21:33.532Z,64.9
2023-03-11T03:22:49.732Z,64.9
2023-03-11T03:24:05.926Z,65
2023-03-11T03:25:22.113Z,65
2023-03-11T03:26:38.164Z,64.9
2023-03-11T03:27:54.360Z,65
2023-03-11T03:29:10.528Z,65.1
2023-03-11T03:30:26.735Z,64.8
2023-03-11T03:31:43.045Z,65.1
2023-03-11T03:32:59.232Z,65.1
2023-03-11T03:34:14.426Z,64.9
2023-03-11T03:35:30.499Z,64.9
2023-03-11T03:36:46.817Z,65
2023-03-11T03:38:02.870Z,64.8
2023-03-11T03:39:19.060Z,65
2023-03-11T03:40:35.371Z,65
2023-03-11T03:41:51.553Z,65.1
2023-03-11T03:43:07.752Z,64.7
2023-03-11T03:44:23.809Z,64.8
2023-03-11T03:45:39.997Z,65.1
2023-03-11T03:46:56.305Z,65
2023-03-11T03:48:12.371Z,64.9
2023-03-11T03:49:28.556Z,64.9
2023-03-11T03:50:43.759Z,65.2
2023-03-11T03:51:59.946Z,64.9
2023-03-11T03:53:16.258Z,65
2023-03-11T03:54:32.313Z,65
2023-03-11T03:55:48.632Z,65.1
2023-03-11T03:57:04.693Z,64.9
2023-03-11T03:58:19.905Z,65.2
2023-03-11T03:59:36.228Z,65.1
2023-03-11T04:00:52.278Z,65.2
2023-03-11T04:02:08.598Z,65.2
2023-03-11T04:03:24.777Z,65.1
2023-03-11T04:04:40.830Z,65.2
2023-03-11T04:05:57.020Z,65
2023-03-11T04:07:13.210Z,65
2023-03-11T04:08:29.398Z,65.1
2023-03-11T04:09:45.591Z,65
2023-03-11T04:11:01.902Z,65
2023-03-11T04:12:18.093Z,64.9
2023-03-11T04:13:34.282Z,65
2023-03-11T04:14:49.341Z,65
2023-03-11T04:16:05.664Z,65.1
2023-03-11T04:17:21.724Z,65.1
2023-03-11T04:18:38.040Z,65.2
2023-03-11T04:19:54.233Z,65.2
2023-03-11T04:21:10.274Z,65.2
2023-03-11T04:22:26.461Z,65.2
2023-03-11T04:23:42.793Z,65.2
2023-03-11T04:24:58.984Z,65
2023-03-11T04:26:15.034Z,65.1
2023-03-11T04:27:31.364Z,65.2
2023-03-11T04:28:47.414Z,65.2
2023-03-11T04:30:03.591Z,65.1
2023-03-11T04:31:18.930Z,65
2023-03-11T04:32:34.993Z,65
2023-03-11T04:33:51.305Z,65.1
2023-03-11T04:35:07.366Z,65.1
2023-03-11T04:36:23.555Z,65
2023-03-11T04:37:39.886Z,65
2023-03-11T04:38:55.920Z,65.1
2023-03-11T04:40:12.118Z,65.2
2023-03-11T04:41:28.432Z,65.2
2023-03-11T04:42:44.473Z,65.4
2023-03-11T04:44:00.681Z,65.3
2023-03-11T04:45:16.865Z,65.3
2023-03-11T04:46:33.191Z,65.2
2023-03-11T04:47:48.243Z,65.4
2023-03-11T04:49:04.437Z,65.3
2023-03-11T04:50:20.763Z,65.3
2023-03-11T04:51:36.809Z,65.2
2023-03-11T04:52:53.150Z,65.1
2023-03-11T04:54:09.184Z,65.2
2023-03-11T04:55:25.363Z,65.3
2023-03-11T04:56:41.557Z,65.3
2023-03-11T04:57:57.887Z,65.1
2023-03-11T04:59:14.086Z,65.2
2023-03-11T05:00:30.275Z,65.1
2023-03-11T05:01:46.453Z,65
2023-03-11T05:03:02.644Z,65
2023-03-11T05:04:17.853Z,65
2023-03-11T05:05:34.032Z,65.2
2023-03-11T05:06:50.076Z,65.1
2023-03-11T05:08:06.403Z,65.1
2023-03-11T05:09:22.607Z,65.2
2023-03-11T05:10:38.777Z,65.1
2023-03-11T05:11:54.980Z,64.8
2023-03-11T05:13:11.163Z,65.2
2023-03-11T05:14:27.356Z,65.2
2023-03-11T05:15:43.525Z,65.4
2023-03-11T05:16:59.728Z,65.3
2023-03-11T05:18:15.912Z,65.3
2023-03-11T05:19:32.095Z,65
2023-03-11T05:20:47.145Z,65.2
2023-03-11T05:22:03.345Z,65.2
2023-03-11T05:23:19.000Z,64.9
2023-03-11T05:24:35.868Z,64.7
2023-03-11T05:25:51.898Z,64.6
2023-03-11T05:27:08.249Z,64.2
2023-03-11T05:28:24.427Z,64.4
2023-03-11T05:29:40.460Z,64.1
2023-03-11T05:30:56.804Z,64.6
2023-03-11T05:32:12.981Z,64.6
2023-03-11T05:33:29.031Z,64.6
2023-03-11T05:34:45.204Z,64.6
2023-03-11T05:36:01.561Z,64.7
2023-03-11T05:37:16.752Z,64.6
2023-03-11T05:38:32.782Z,64.4
2023-03-11T05:39:49.140Z,64.6
2023-03-11T05:41:05.323Z,64.7
2023-03-11T05:42:21.501Z,64.5
2023-03-11T05:43:37.690Z,64.6
2023-03-11T05:44:53.724Z,64.6
2023-03-11T05:47:26.091Z,64.6
2023-03-11T05:48:42.443Z,64.5
2023-03-11T05:49:58.634Z,64.5
2023-03-11T05:51:14.662Z,64.6
2023-03-11T05:52:31.001Z,64.5
2023-03-11T05:53:47.183Z,64.5
2023-03-11T05:55:02.393Z,64.6
2023-03-11T05:56:18.578Z,64.7
2023-03-11T05:57:34.772Z,64.6
2023-03-11T05:58:50.955Z,64.6
2023-03-11T06:00:06.989Z,64
2023-03-11T06:01:23.341Z,64.3
2023-03-11T06:02:39.354Z,64.6
2023-03-11T06:03:55.557Z,64.6
2023-03-11T06:05:11.904Z,64.5
2023-03-11T06:07:44.116Z,64.5
2023-03-11T06:09:00.460Z,64.2
2023-03-11T06:10:16.637Z,64.3
2023-03-11T06:11:31.859Z,64.5
2023-03-11T06:12:48.035Z,64.6
2023-03-11T06:14:04.218Z,64.7
2023-03-11T06:15:20.246Z,64.6
2023-03-11T06:16:36.597Z,64.6
2023-03-11T06:17:52.620Z,64.6
2023-03-11T06:19:08.974Z,64.5
2023-03-11T06:20:25.166Z,64.7
2023-03-11T06:21:41.346Z,64.3
2023-03-11T06:22:57.373Z,64.6
2023-03-11T06:24:13.723Z,64.6
2023-03-11T06:25:29.904Z,64.6
2023-03-11T06:26:46.102Z,64.5
2023-03-11T06:28:01.308Z,64.4
2023-03-11T06:29:17.320Z,64.7
2023-03-11T06:30:33.520Z,64.8
2023-03-11T06:31:49.867Z,64.8
2023-03-11T06:33:05.888Z,64.7
2023-03-11T06:34:22.246Z,64.8
2023-03-11T06:35:38.435Z,64.8
2023-03-11T06:36:54.621Z,64.8
2023-03-11T06:38:10.800Z,64.8
2023-03-11T06:39:26.991Z,64.9
2023-03-11T06:40:43.009Z,64.8
2023-03-11T06:41:59.186Z,64.9
2023-03-11T06:43:15.552Z,64.7
2023-03-11T06:44:30.757Z,64.7
2023-03-11T06:45:46.771Z,64.9
2023-03-11T06:47:03.126Z,64.7
2023-03-11T06:48:19.326Z,64.8
2023-03-11T06:49:35.513Z,64.6
2023-03-11T06:50:51.521Z,64.6
2023-03-11T06:52:07.889Z,64.4
2023-03-11T06:53:24.061Z,64.6
2023-03-11T06:54:40.076Z,64.7
2023-03-11T06:55:56.268Z,64.8
2023-03-11T06:57:12.625Z,64.8
2023-03-11T06:58:28.810Z,64.6
2023-03-11T06:59:45.014Z,64.7
2023-03-11T07:01:00.205Z,64.8
2023-03-11T07:02:16.402Z,64.6
2023-03-11T07:03:32.577Z,64.5
2023-03-11T07:04:48.771Z,64.5
2023-03-11T07:06:04.964Z,64.6
2023-03-11T07:07:20.979Z,64.6
2023-03-11T07:08:37.155Z,64.7
2023-03-11T07:09:53.527Z,64.6
2023-03-11T07:11:09.718Z,64.6
2023-03-11T07:12:25.893Z,64.3
2023-03-11T07:13:42.086Z,64.2
2023-03-11T07:14:58.268Z,64.5
2023-03-11T07:16:14.450Z,64.5
2023-03-11T07:17:29.490Z,64.3
2023-03-11T07:18:45.844Z,64.3
2023-03-11T07:20:01.867Z,64.2
2023-03-11T07:21:18.054Z,64.3
2023-03-11T07:22:34.405Z,64.4
2023-03-11T07:23:50.594Z,64.5
2023-03-11T07:25:06.794Z,64.2
2023-03-11T07:26:22.967Z,63.9
2023-03-11T07:27:39.154Z,64
2023-03-11T07:28:55.351Z,64
2023-03-11T07:30:11.547Z,63.7
2023-03-11T07:31:27.734Z,64
2023-03-11T07:32:43.725Z,63.9
2023-03-11T07:33:59.125Z,64.1
2023-03-11T07:35:15.302Z,64
2023-03-11T07:36:31.485Z,63.9
2023-03-11T07:37:47.668Z,64
2023-03-11T07:39:03.857Z,64.2
2023-03-11T07:40:20.054Z,64.1
2023-03-11T07:41:36.248Z,64.2
2023-03-11T07:42:52.423Z,64.2
2023-03-11T07:44:08.437Z,64.2
2023-03-11T07:45:24.800Z,64
2023-03-11T07:46:40.812Z,64.4
2023-03-11T07:47:57.004Z,64.4
2023-03-11T07:49:13.367Z,64.4
2023-03-11T07:50:28.379Z,64.1
2023-03-11T07:51:44.754Z,64.3
2023-03-11T07:53:00.752Z,64
2023-03-11T07:54:16.943Z,64.2
2023-03-11T07:55:33.318Z,64.2
2023-03-11T07:56:49.330Z,64
2023-03-11T07:58:05.511Z,64
2023-03-11T07:59:21.877Z,63.8
2023-03-11T08:00:38.061Z,63.6
2023-03-11T08:01:54.068Z,63.4
2023-03-11T08:03:10.447Z,63.6
2023-03-11T08:04:26.453Z,63.4
2023-03-11T08:05:42.812Z,63
2023-03-11T08:06:58.027Z,63.4
2023-03-11T08:08:14.232Z,63.3
2023-03-11T08:09:30.206Z,63.5
2023-03-11T08:10:46.400Z,63.3
2023-03-11T08:12:02.777Z,63.4
2023-03-11T08:13:17.977Z,63.5
2023-03-11T08:14:33.989Z,63.2
2023-03-11T08:15:50.159Z,63.1
2023-03-11T08:17:06.363Z,63.3
2023-03-11T08:18:22.721Z,63.2
2023-03-11T08:19:38.916Z,63
2023-03-11T08:20:55.101Z,63.3
2023-03-11T08:22:11.288Z,63.3
2023-03-11T08:23:27.490Z,63.4
2023-03-11T08:24:43.671Z,63.3
2023-03-11T08:25:59.859Z,63.4
2023-03-11T08:27:16.052Z,63.2
2023-03-11T08:28:32.045Z,63
2023-03-11T08:29:47.430Z,62.8
2023-03-11T08:31:03.429Z,62.9
2023-03-11T08:32:19.616Z,63
2023-03-11T08:33:36.002Z,63
2023-03-11T08:34:51.989Z,63.1
2023-03-11T08:36:08.371Z,63
2023-03-11T08:37:24.359Z,63.2
2023-03-11T08:38:40.746Z,62.9
2023-03-11T08:39:56.739Z,62.9
2023-03-11T08:41:13.115Z,63
2023-03-11T08:42:29.311Z,63
2023-03-11T08:43:45.494Z,62.8
2023-03-11T08:45:01.487Z,62.8
2023-03-11T08:46:16.888Z,62.6
2023-03-11T08:47:32.889Z,62.1
2023-03-11T08:48:49.258Z,62.5
2023-03-11T08:50:05.451Z,62.8
2023-03-11T08:51:21.636Z,62.8
2023-03-11T08:52:37.823Z,62.8
2023-03-11T08:53:54.012Z,62.8
2023-03-11T08:55:10.003Z,63
2023-03-11T08:56:26.397Z,62.8
2023-03-11T08:57:42.583Z,62.8
2023-03-11T08:58:58.768Z,62.8
2023-03-11T09:00:14.948Z,62.6
2023-03-11T09:01:31.141Z,62.4
2023-03-11T09:02:46.346Z,62.8
2023-03-11T09:04:02.531Z,62.8
2023-03-11T09:05:18.712Z,62.6
2023-03-11T09:06:34.896Z,62.2
2023-03-11T09:07:50.899Z,62.3
2023-03-11T09:09:07.280Z,62.5
2023-03-11T09:10:23.260Z,62.4
2023-03-11T09:11:39.658Z,62.5
2023-03-11T09:12:55.833Z,62.3
2023-03-11T09:14:12.032Z,62.3
2023-03-11T09:15:28.014Z,62.2
2023-03-11T09:16:44.403Z,62.6
2023-03-11T09:18:00.389Z,62.5
2023-03-11T09:19:15.802Z,62.5
2023-03-11T09:20:31.974Z,62.5
2023-03-11T09:21:48.171Z,62.5
2023-03-11T09:23:04.362Z,62.5
2023-03-11T09:24:20.553Z,62.1
2023-03-11T09:25:36.731Z,62.8
2023-03-11T09:26:52.928Z,62.8
2023-03-11T09:28:09.098Z,62.3
2023-03-11T09:29:25.301Z,62.4
2023-03-11T09:30:41.477Z,62.1
2023-03-11T09:31:57.669Z,62.3
2023-03-11T09:33:13.659Z,62.2
2023-03-11T09:34:30.045Z,62.4
2023-03-11T09:35:45.242Z,62.2
2023-03-11T09:37:01.441Z,61.8
2023-03-11T09:38:17.630Z,61.9
2023-03-11T09:39:33.602Z,62.2
2023-03-11T09:40:49.788Z,62.1
2023-03-11T09:42:05.985Z,62.1
2023-03-11T09:43:22.372Z,61.9
2023-03-11T09:44:38.553Z,61.8
2023-03-11T09:45:54.755Z,61.6
2023-03-11T09:47:10.724Z,61.7
2023-03-11T09:48:26.915Z,62
2023-03-11T09:49:43.318Z,61.8
2023-03-11T09:50:59.508Z,61.8
2023-03-11T09:52:14.493Z,61.3
2023-03-11T09:53:30.881Z,61.5
2023-03-11T09:54:47.079Z,61.9
2023-03-11T09:56:03.053Z,61.9
2023-03-11T09:57:19.453Z,61.7
2023-03-11T09:58:35.632Z,61.8
2023-03-11T09:59:51.833Z,61.9
2023-03-11T10:01:08.019Z,61.5
2023-03-11T10:02:24.203Z,61.7
2023-03-11T10:03:40.391Z,61
2023-03-11T10:04:56.575Z,61.7
2023-03-11T10:06:12.767Z,61.9
2023-03-11T10:07:28.741Z,62
2023-03-11T10:08:43.951Z,61.8
2023-03-11T10:10:00.347Z,61.5
2023-03-11T10:11:16.320Z,61.2
2023-03-11T10:12:32.726Z,61
2023-03-11T10:13:48.693Z,61.2
2023-03-11T10:15:05.092Z,61
2023-03-11T10:16:21.278Z,61.1
2023-03-11T10:17:37.264Z,61.2
2023-03-11T10:18:53.444Z,61.3
2023-03-11T10:20:09.856Z,61.4
2023-03-11T10:21:26.041Z,61
2023-03-11T10:22:41.997Z,60.9
2023-03-11T10:23:58.411Z,61.1
2023-03-11T10:25:13.612Z,60.6
2023-03-11T10:26:29.580Z,61
2023-03-11T10:27:45.979Z,60.8
2023-03-11T10:29:02.183Z,60.7
2023-03-11T10:30:18.355Z,61.1
2023-03-11T10:31:34.552Z,61.3
2023-03-11T10:32:50.745Z,61.2
2023-03-11T10:34:06.708Z,61
2023-03-11T10:35:23.116Z,61
2023-03-11T10:36:39.297Z,60.3
2023-03-11T10:37:55.477Z,60.4
2023-03-11T10:39:11.669Z,60.8
2023-03-11T10:40:27.869Z,60.8
2023-03-11T10:41:43.061Z,60.8
2023-03-11T10:42:59.029Z,60.6
2023-03-11T10:44:15.432Z,60.9
2023-03-11T10:45:31.635Z,60.3
2023-03-11T10:46:47.826Z,60.8
2023-03-11T10:48:04.000Z,61.1
2023-03-11T10:49:19.963Z,60.9
2023-03-11T10:50:36.145Z,60.5
2023-03-11T10:51:52.561Z,60.9
2023-03-11T10:53:08.758Z,60.6
2023-03-11T10:54:24.935Z,60.8
2023-03-11T10:55:40.915Z,60.5
2023-03-11T10:56:57.323Z,60.6
2023-03-11T10:58:12.530Z,60.6
2023-03-11T10:59:28.707Z,60.9
2023-03-11T11:00:44.892Z,61
2023-03-11T11:02:00.866Z,60.8
2023-03-11T11:03:17.051Z,60.8
2023-03-11T11:04:33.222Z,60.8
2023-03-11T11:05:49.413Z,61.3
2023-03-11T11:07:05.828Z,61.3
2023-03-11T11:08:22.014Z,61.5
2023-03-11T11:09:38.200Z,61
2023-03-11T11:10:54.403Z,60.8
2023-03-11T11:12:10.361Z,60.6
2023-03-11T11:13:26.773Z,60.4
2023-03-11T11:14:41.973Z,60.9
2023-03-11T11:15:58.158Z,60.9
2023-03-11T11:17:14.358Z,61.1
2023-03-11T11:18:30.546Z,60.8
2023-03-11T11:19:46.731Z,61.1
2023-03-11T11:21:02.687Z,61
2023-03-11T11:22:19.102Z,61.1
2023-03-11T11:23:35.293Z,61
2023-03-11T11:24:51.474Z,61.1
2023-03-11T11:26:07.668Z,61.2
2023-03-11T11:27:23.858Z,60.9
2023-03-11T11:28:40.034Z,60.6
2023-03-11T11:29:56.227Z,60.6
2023-03-11T11:31:11.428Z,60.2
2023-03-11T11:32:27.622Z,60.4
2023-03-11T11:33:43.571Z,60.3
2023-03-11T11:34:59.999Z,59.5
2023-03-11T11:36:16.176Z,58.6
2023-03-11T11:37:32.365Z,57.8
2023-03-11T11:38:48.561Z,57.9
2023-03-11T11:40:04.739Z,58.5
2023-03-11T11:41:20.928Z,59.2
2023-03-11T11:42:36.890Z,59.2
2023-03-11T11:43:53.311Z,59.1
2023-03-11T11:45:09.501Z,59.8
2023-03-11T11:46:25.684Z,59.5
2023-03-11T11:47:40.891Z,59
2023-03-11T11:48:57.061Z,59.2
2023-03-11T11:50:13.022Z,58.1
2023-03-11T11:51:29.442Z,57.9
2023-03-11T11:52:45.631Z,58.6
2023-03-11T11:54:01.826Z,59
2023-03-11T11:55:17.775Z,59.4
2023-03-11T11:56:34.199Z,59.2
2023-03-11T11:57:50.392Z,59
2023-03-11T11:59:06.571Z,59.2
2023-03-11T12:00:22.756Z,59
2023-03-11T12:01:38.955Z,59.2
2023-03-11T12:02:54.892Z,58.6
2023-03-11T12:04:10.332Z,57.7
2023-03-11T12:05:26.276Z,58.5
2023-03-11T12:06:42.716Z,58.5
2023-03-11T12:07:58.903Z,59.2
2023-03-11T12:09:15.078Z,59.7
2023-03-11T12:10:31.029Z,59.7
2023-03-11T12:11:47.211Z,59
2023-03-11T12:13:03.413Z,58.8
2023-03-11T12:14:19.834Z,59.3
2023-03-11T12:15:36.021Z,59.4
2023-03-11T12:16:52.211Z,59.5
2023-03-11T12:18:08.399Z,59.8
2023-03-11T12:19:24.594Z,59.3
2023-03-11T12:20:39.786Z,58.6
2023-03-11T12:21:55.983Z,58.5
2023-03-11T12:23:12.162Z,58.4
2023-03-11T12:24:28.117Z,58.7
2023-03-11T12:25:44.547Z,59.3
2023-03-11T12:27:00.730Z,59.5
2023-03-11T12:28:15.701Z,59.6
2023-03-11T12:29:32.124Z,59.8
2023-03-11T12:30:48.313Z,59.1
2023-03-11T12:32:04.488Z,59.2
2023-03-11T12:33:20.692Z,59.4
2023-03-11T12:34:36.873Z,59.8
2023-03-11T12:35:53.055Z,59.7
2023-03-11T12:37:09.253Z,60.1
2023-03-11T12:38:25.433Z,60
2023-03-11T12:39:41.387Z,60
2023-03-11T12:40:57.557Z,59.8
2023-03-11T12:42:14.003Z,59.9
2023-03-11T12:43:29.945Z,60
2023-03-11T12:44:45.392Z,60.3
2023-03-11T12:46:01.588Z,60.5
2023-03-11T12:47:17.771Z,60.3
2023-03-11T12:48:33.971Z,60.3
2023-03-11T12:49:49.908Z,60.3
2023-03-11T12:51:06.085Z,60.2
2023-03-11T12:52:22.540Z,60.5
2023-03-11T12:53:38.724Z,59.9
2023-03-11T12:54:54.910Z,59.9
2023-03-11T12:56:10.838Z,59
2023-03-11T12:57:27.028Z,57.2
2023-03-11T12:58:43.220Z,56.1
2023-03-11T12:59:59.660Z,56.5
2023-03-11T13:01:14.622Z,57.3
2023-03-11T13:02:31.063Z,57.8
2023-03-11T13:03:47.248Z,58
2023-03-11T13:05:03.433Z,58.8
2023-03-11T13:06:19.364Z,58.8
2023-03-11T13:07:35.813Z,59.1
2023-03-11T13:08:52.010Z,58.9
2023-03-11T13:10:08.187Z,59.1
2023-03-11T13:11:24.121Z,59.1
2023-03-11T13:12:40.573Z,59.1
2023-03-11T13:13:56.762Z,59.2
2023-03-11T13:15:12.948Z,57
2023-03-11T13:16:29.135Z,54.3
2023-03-11T13:17:44.339Z,53.9
2023-03-11T13:19:00.528Z,54.4
2023-03-11T13:20:16.725Z,55.2
2023-03-11T13:21:32.913Z,55.6
2023-03-11T13:22:48.836Z,55.8
2023-03-11T13:24:05.031Z,56.3
2023-03-11T13:25:21.213Z,57.1
2023-03-11T13:26:37.418Z,57.9
2023-03-11T13:27:53.863Z,57.9
2023-03-11T13:29:09.793Z,58
2023-03-11T13:30:26.233Z,57.7
2023-03-11T13:31:42.417Z,57.8
2023-03-11T13:32:58.609Z,57.7
2023-03-11T13:34:13.813Z,57.8
2023-03-11T13:35:29.997Z,57.9
2023-03-11T13:36:46.186Z,58.4
2023-03-11T13:38:02.392Z,58.8
2023-03-11T13:39:18.579Z,58.8
2023-03-11T13:40:34.000Z,58.6
2023-03-11T13:41:50.691Z,59.1
2023-03-11T13:43:07.127Z,58.9
2023-03-11T13:44:23.072Z,59.1
2023-03-11T13:45:39.512Z,59.1
2023-03-11T13:46:55.707Z,58.8
2023-03-11T13:48:11.898Z,59
2023-03-11T13:49:28.092Z,58.8
2023-03-11T13:50:43.031Z,58.6
2023-03-11T13:51:59.470Z,58.6
2023-03-11T13:53:15.394Z,58.5
2023-03-11T13:54:31.590Z,58.4
2023-03-11T13:55:48.052Z,58.1
2023-03-11T13:57:04.235Z,58.2
2023-03-11T13:58:20.421Z,58.1
2023-03-11T13:59:36.341Z,58.1
2023-03-11T14:00:52.801Z,57.9
2023-03-11T14:02:08.997Z,57.7
2023-03-11T14:03:25.169Z,58
2023-03-11T14:04:41.371Z,58.2
2023-03-11T14:05:57.299Z,58
2023-03-11T14:07:12.493Z,58.5
2023-03-11T14:08:28.951Z,58.5
2023-03-11T14:09:45.146Z,58.8
2023-03-11T14:11:01.328Z,59.2
2023-03-11T14:12:17.244Z,59.2
2023-03-11T14:13:33.712Z,59.5
2023-03-11T14:14:49.626Z,59.4
2023-03-11T14:16:06.079Z,59.3
2023-03-11T14:17:22.281Z,59.6
2023-03-11T14:18:38.456Z,59.3
2023-03-11T14:19:54.645Z,59.6
2023-03-11T14:21:10.833Z,59.7
2023-03-11T14:22:27.023Z,59.5
2023-03-11T14:23:42.241Z,59.6
2023-03-11T14:24:58.421Z,59.7
2023-03-11T14:26:14.613Z,59.8
2023-03-11T14:27:30.547Z,59.7
2023-03-11T14:28:46.997Z,60
2023-03-11T14:30:03.179Z,59.6
2023-03-11T14:31:19.373Z,60.1
2023-03-11T14:32:35.560Z,59.7
2023-03-11T14:33:51.742Z,60
2023-03-11T14:35:07.942Z,60.4
2023-03-11T14:36:24.124Z,60.2
2023-03-11T14:37:40.324Z,60.3
2023-03-11T14:38:56.516Z,60.6
2023-03-11T14:40:11.709Z,60.6
2023-03-11T14:41:27.913Z,59.9
2023-03-11T14:42:43.825Z,60.5
2023-03-11T14:44:00.020Z,60.2
2023-03-11T14:45:16.464Z,62.3
2023-03-11T14:46:32.665Z,63.4
2023-03-11T14:47:48.842Z,62.3
2023-03-11T14:49:05.031Z,61.3
2023-03-11T14:50:21.238Z,61.2
2023-03-11T14:51:37.152Z,61.4
2023-03-11T14:52:53.332Z,61.2
2023-03-11T14:54:09.804Z,61.4
2023-03-11T14:55:25.982Z,61.1
2023-03-11T14:56:41.199Z,60.5
2023-03-11T14:57:57.373Z,61.1
2023-03-11T14:59:13.563Z,61
2023-03-11T15:00:29.477Z,60.6
2023-03-11T15:01:45.939Z,61
2023-03-11T15:03:02.135Z,60.8
2023-03-11T15:04:18.326Z,60.6
2023-03-11T15:05:34.526Z,60.5
2023-03-11T15:06:50.705Z,60.7
2023-03-11T15:08:06.900Z,62
2023-03-11T15:09:23.078Z,61.5
2023-03-11T15:10:39.282Z,61.4
2023-03-11T15:11:55.184Z,61.2
2023-03-11T15:13:10.658Z,61.3
2023-03-11T15:14:26.851Z,61.2
2023-03-11T15:15:42.758Z,61
2023-03-11T15:16:59.240Z,61.3
2023-03-11T15:18:15.142Z,61
2023-03-11T15:19:31.622Z,60.7
2023-03-11T15:20:47.799Z,61.1
2023-03-11T15:22:03.989Z,61.2
2023-03-11T15:23:19.913Z,61
2023-03-11T15:24:36.369Z,61
2023-03-11T15:25:52.558Z,61.4
2023-03-11T15:27:08.756Z,61.4
2023-03-11T15:28:24.946Z,61.4
2023-03-11T15:29:40.137Z,61.7
2023-03-11T15:30:56.340Z,61.7
2023-03-11T15:32:12.525Z,61.7
2023-03-11T15:33:28.714Z,61.8
2023-03-11T15:34:44.883Z,61.9
2023-03-11T15:36:01.095Z,61.9
2023-03-11T15:37:17.280Z,61.8
2023-03-11T15:38:33.445Z,61.9
2023-03-11T15:39:49.661Z,61
2023-03-11T15:41:05.845Z,61.6
2023-03-11T15:42:22.041Z,61.8
2023-03-11T15:43:38.237Z,62
2023-03-11T15:44:54.424Z,61.7
2023-03-11T15:46:09.594Z,61.9
2023-03-11T15:47:25.813Z,62.1
2023-03-11T15:48:41.000Z,62.1
2023-03-11T15:49:58.191Z,62.2
2023-03-11T15:51:14.379Z,62.1
2023-03-11T15:52:30.572Z,62.1
2023-03-11T15:53:46.727Z,62.2
2023-03-11T15:55:02.942Z,62.1
2023-03-11T15:56:19.115Z,62.2
2023-03-11T15:57:35.322Z,62.2
2023-03-11T15:58:51.517Z,61.9
2023-03-11T16:00:07.702Z,61.4
2023-03-11T16:01:23.861Z,61.8
2023-03-11T16:02:39.108Z,61.5
2023-03-11T16:03:55.252Z,61.4
2023-03-11T16:05:11.478Z,61.6
2023-03-11T16:06:27.667Z,61.6
2023-03-11T16:07:43.854Z,61.6
2023-03-11T16:09:00.052Z,61.7
2023-03-11T16:10:16.234Z,61.7
2023-03-11T16:11:32.432Z,61.7
2023-03-11T16:12:48.579Z,61.5
2023-03-11T16:14:04.807Z,61.7
2023-03-11T16:15:20.989Z,61.7
2023-03-11T16:16:37.176Z,61.7
2023-03-11T16:17:53.372Z,61.3
2023-03-11T16:19:08.570Z,61.6
2023-03-11T16:20:24.738Z,62
2023-03-11T16:21:40.954Z,61.8
2023-03-11T16:22:57.140Z,61.3
2023-03-11T16:24:13.291Z,62.2
2023-03-11T16:25:29.530Z,62
2023-03-11T16:26:45.722Z,62
2023-03-11T16:28:01.909Z,62.2
2023-03-11T16:29:18.088Z,62.3
2023-03-11T16:30:34.293Z,62.3
2023-03-11T16:31:50.425Z,62.5
2023-03-11T16:33:06.656Z,62.3
2023-03-11T16:34:22.805Z,62.1
2023-03-11T16:35:38.065Z,62.4
2023-03-11T16:36:54.244Z,62.5
2023-03-11T16:38:10.433Z,62.2
2023-03-11T16:39:26.631Z,62.8
2023-03-11T16:40:42.804Z,63
2023-03-11T16:41:59.003Z,62.8
2023-03-11T16:43:14.217Z,62.8
2023-03-11T16:44:30.362Z,62.8
2023-03-11T16:45:46.562Z,63
2023-03-11T16:47:02.788Z,62.8
2023-03-11T16:48:18.961Z,63
2023-03-11T16:49:35.163Z,62.6
2023-03-11T16:50:51.348Z,62.8
2023-03-11T16:52:07.497Z,62.8
2023-03-11T16:53:23.728Z,62.8
2023-03-11T16:54:39.922Z,62.8
2023-03-11T16:55:56.110Z,62.8
2023-03-11T16:57:12.294Z,63.1
2023-03-11T16:58:28.483Z,63
2023-03-11T16:59:43.687Z,63.1
2023-03-11T17:00:59.869Z,62.8
2023-03-11T17:02:16.029Z,62.9
2023-03-11T17:03:32.215Z,62.5
2023-03-11T17:04:48.451Z,62.8
2023-03-11T17:06:04.642Z,63
2023-03-11T17:07:20.831Z,62.7